sensor_id;sensor_type;location;lat;lon;timestamp;pressure;altitude;pressure_sealevel;temperature;humidity
70103;BME280;57470;50.034;15.256;2023-04-08T00:00:35;99528.97;;;6.15;99.80
70103;BME280;57470;50.034;15.256;2023-04-08T00:03:01;99525.53;;;6.13;99.81
70103;BME280;57470;50.034;15.256;2023-04-08T00:05:27;99519.13;;;5.99;99.73
70103;BME280;57470;50.034;15.256;2023-04-08T00:07:52;99519.38;;;5.95;100.00
70103;BME280;57470;50.034;15.256;2023-04-08T00:10:18;99522.88;;;5.95;99.93
70103;BME280;57470;50.034;15.256;2023-04-08T00:12:44;99518.84;;;5.88;100.00
70103;BME280;57470;50.034;15.256;2023-04-08T00:15:09;99517.22;;;5.84;100.00
70103;BME280;57470;50.034;15.256;2023-04-08T00:17:35;99516.38;;;5.84;100.00
70103;BME280;57470;50.034;15.256;2023-04-08T00:20:00;99518.66;;;5.91;100.00
70103;BME280;57470;50.034;15.256;2023-04-08T00:22:25;99528.28;;;5.92;100.00
70103;BME280;57470;50.034;15.256;2023-04-08T00:24:51;99524.22;;;5.85;100.00
70103;BME280;57470;50.034;15.256;2023-04-08T00:27:16;99520.56;;;5.89;100.00
70103;BME280;57470;50.034;15.256;2023-04-08T00:29:42;99524.47;;;5.81;100.00
70103;BME280;57470;50.034;15.256;2023-04-08T00:32:07;99523.81;;;5.94;100.00
70103;BME280;57470;50.034;15.256;2023-04-08T00:34:32;99525.13;;;6.03;100.00
70103;BME280;57470;50.034;15.256;2023-04-08T00:36:58;99524.22;;;6.04;100.00
70103;BME280;57470;50.034;15.256;2023-04-08T00:39:23;99527.56;;;6.08;100.00
70103;BME280;57470;50.034;15.256;2023-04-08T00:41:49;99540.56;;;5.93;100.00
70103;BME280;57470;50.034;15.256;2023-04-08T00:44:14;99539.88;;;5.90;100.00
70103;BME280;57470;50.034;15.256;2023-04-08T00:46:39;99538.09;;;5.90;100.00
70103;BME280;57470;50.034;15.256;2023-04-08T00:49:05;99532.34;;;5.99;100.00
70103;BME280;57470;50.034;15.256;2023-04-08T00:51:34;99534.66;;;5.88;100.00
70103;BME280;57470;50.034;15.256;2023-04-08T00:54:01;99535.88;;;5.81;100.00
70103;BME280;57470;50.034;15.256;2023-04-08T00:56:28;99536.00;;;5.78;100.00
70103;BME280;57470;50.034;15.256;2023-04-08T00:58:54;99539.88;;;5.71;100.00
70103;BME280;57470;50.034;15.256;2023-04-08T01:04:36;99540.00;;;5.87;100.00
70103;BME280;57470;50.034;15.256;2023-04-08T01:07:17;99543.13;;;5.95;100.00
70103;BME280;57470;50.034;15.256;2023-04-08T01:09:47;99542.63;;;6.06;100.00
70103;BME280;57470;50.034;15.256;2023-04-08T01:12:21;99544.63;;;6.00;100.00
70103;BME280;57470;50.034;15.256;2023-04-08T01:14:51;99533.06;;;6.03;100.00
70103;BME280;57470;50.034;15.256;2023-04-08T01:17:21;99543.00;;;5.98;99.78
70103;BME280;57470;50.034;15.256;2023-04-08T01:19:47;99541.22;;;5.98;100.00
70103;BME280;57470;50.034;15.256;2023-04-08T01:22:43;99535.28;;;5.93;100.00
70103;BME280;57470;50.034;15.256;2023-04-08T01:25:22;99542.56;;;6.07;100.00
70103;BME280;57470;50.034;15.256;2023-04-08T01:27:49;99546.50;;;5.98;99.73
70103;BME280;57470;50.034;15.256;2023-04-08T01:30:17;99535.22;;;5.95;99.95
70103;BME280;57470;50.034;15.256;2023-04-08T01:32:44;99538.56;;;5.98;100.00
70103;BME280;57470;50.034;15.256;2023-04-08T01:35:10;99541.56;;;5.91;99.98
70103;BME280;57470;50.034;15.256;2023-04-08T01:37:37;99538.94;;;5.91;100.00
70103;BME280;57470;50.034;15.256;2023-04-08T01:40:04;99542.75;;;6.02;100.00
70103;BME280;57470;50.034;15.256;2023-04-08T01:42:31;99536.22;;;5.92;100.00
70103;BME280;57470;50.034;15.256;2023-04-08T01:44:58;99542.22;;;5.96;100.00
70103;BME280;57470;50.034;15.256;2023-04-08T01:47:25;99545.34;;;6.04;100.00
70103;BME280;57470;50.034;15.256;2023-04-08T01:49:51;99537.78;;;5.96;100.00
70103;BME280;57470;50.034;15.256;2023-04-08T01:52:19;99541.69;;;6.07;100.00
70103;BME280;57470;50.034;15.256;2023-04-08T01:54:45;99539.75;;;6.10;99.75
70103;BME280;57470;50.034;15.256;2023-04-08T01:57:18;99531.22;;;6.05;100.00
70103;BME280;57470;50.034;15.256;2023-04-08T01:59:50;99537.47;;;6.02;100.00
70103;BME280;57470;50.034;15.256;2023-04-08T02:02:19;99541.22;;;5.98;100.00
70103;BME280;57470;50.034;15.256;2023-04-08T02:04:47;99537.00;;;5.94;100.00
70103;BME280;57470;50.034;15.256;2023-04-08T02:07:15;99542.63;;;6.06;100.00
70103;BME280;57470;50.034;15.256;2023-04-08T02:09:42;99536.50;;;6.05;100.00
70103;BME280;57470;50.034;15.256;2023-04-08T02:12:09;99541.31;;;6.14;100.00
70103;BME280;57470;50.034;15.256;2023-04-08T02:14:37;99535.53;;;5.89;100.00
70103;BME280;57470;50.034;15.256;2023-04-08T02:17:24;99542.56;;;6.07;100.00
70103;BME280;57470;50.034;15.256;2023-04-08T02:20:03;99538.66;;;5.97;100.00
70103;BME280;57470;50.034;15.256;2023-04-08T02:22:38;99539.34;;;6.00;99.25
70103;BME280;57470;50.034;15.256;2023-04-08T02:25:14;99540.06;;;6.04;100.00
70103;BME280;57470;50.034;15.256;2023-04-08T02:27:42;99538.28;;;5.86;100.00
70103;BME280;57470;50.034;15.256;2023-04-08T02:30:10;99548.34;;;5.96;100.00
70103;BME280;57470;50.034;15.256;2023-04-08T02:32:38;99550.28;;;5.93;100.00
70103;BME280;57470;50.034;15.256;2023-04-08T02:35:07;99553.47;;;5.99;100.00
70103;BME280;57470;50.034;15.256;2023-04-08T02:37:35;99556.41;;;5.93;100.00
70103;BME280;57470;50.034;15.256;2023-04-08T02:40:03;99554.41;;;5.98;100.00
70103;BME280;57470;50.034;15.256;2023-04-08T02:42:30;99557.34;;;5.92;100.00
70103;BME280;57470;50.034;15.256;2023-04-08T02:44:57;99555.47;;;5.94;100.00
70103;BME280;57470;50.034;15.256;2023-04-08T02:47:24;99547.97;;;5.85;100.00
70103;BME280;57470;50.034;15.256;2023-04-08T02:49:51;99555.97;;;5.65;100.00
70103;BME280;57470;50.034;15.256;2023-04-08T02:52:20;99545.22;;;5.88;100.00
70103;BME280;57470;50.034;15.256;2023-04-08T02:54:45;99548.84;;;6.05;100.00
70103;BME280;57470;50.034;15.256;2023-04-08T02:57:11;99556.09;;;5.99;100.00
70103;BME280;57470;50.034;15.256;2023-04-08T02:59:37;99563.53;;;5.91;100.00
70103;BME280;57470;50.034;15.256;2023-04-08T03:02:03;99556.09;;;5.99;100.00
70103;BME280;57470;50.034;15.256;2023-04-08T03:04:28;99563.19;;;5.80;100.00
70103;BME280;57470;50.034;15.256;2023-04-08T03:06:53;99567.63;;;5.98;100.00
70103;BME280;57470;50.034;15.256;2023-04-08T03:09:19;99567.69;;;5.97;100.00
70103;BME280;57470;50.034;15.256;2023-04-08T03:11:44;99572.25;;;5.93;100.00
70103;BME280;57470;50.034;15.256;2023-04-08T03:14:16;99565.03;;;5.97;100.00
70103;BME280;57470;50.034;15.256;2023-04-08T03:16:42;99570.75;;;5.88;100.00
70103;BME280;57470;50.034;15.256;2023-04-08T03:19:07;99564.19;;;5.96;100.00
70103;BME280;57470;50.034;15.256;2023-04-08T03:21:32;99570.59;;;5.91;100.00
70103;BME280;57470;50.034;15.256;2023-04-08T03:23:58;99569.47;;;5.96;100.00
70103;BME280;57470;50.034;15.256;2023-04-08T03:26:23;99567.31;;;5.86;100.00
70103;BME280;57470;50.034;15.256;2023-04-08T03:28:48;99575.97;;;5.89;100.00
70103;BME280;57470;50.034;15.256;2023-04-08T03:31:14;99564.88;;;6.00;100.00
70103;BME280;57470;50.034;15.256;2023-04-08T03:33:39;99566.44;;;6.04;100.00
70103;BME280;57470;50.034;15.256;2023-04-08T03:36:05;99575.84;;;6.10;100.00
70103;BME280;57470;50.034;15.256;2023-04-08T03:38:30;99571.34;;;6.12;100.00
70103;BME280;57470;50.034;15.256;2023-04-08T03:40:56;99569.66;;;6.11;100.00
70103;BME280;57470;50.034;15.256;2023-04-08T03:43:21;99576.16;;;5.85;100.00
70103;BME280;57470;50.034;15.256;2023-04-08T03:45:47;99567.31;;;6.05;100.00
70103;BME280;57470;50.034;15.256;2023-04-08T03:48:12;99566.28;;;5.90;100.00
70103;BME280;57470;50.034;15.256;2023-04-08T03:50:37;99571.47;;;5.91;100.00
70103;BME280;57470;50.034;15.256;2023-04-08T03:53:03;99571.59;;;6.07;100.00
70103;BME280;57470;50.034;15.256;2023-04-08T03:55:28;99575.78;;;6.11;99.93
70103;BME280;57470;50.034;15.256;2023-04-08T03:57:54;99578.59;;;6.08;100.00
70103;BME280;57470;50.034;15.256;2023-04-08T04:00:20;99574.78;;;6.14;99.49
70103;BME280;57470;50.034;15.256;2023-04-08T04:02:45;99578.16;;;6.17;99.44
70103;BME280;57470;50.034;15.256;2023-04-08T04:05:11;99583.44;;;6.17;99.69
70103;BME280;57470;50.034;15.256;2023-04-08T04:07:36;99581.41;;;6.22;99.96
70103;BME280;57470;50.034;15.256;2023-04-08T04:10:01;99584.56;;;6.12;100.00
70103;BME280;57470;50.034;15.256;2023-04-08T04:12:27;99588.00;;;6.14;100.00
70103;BME280;57470;50.034;15.256;2023-04-08T04:14:52;99589.69;;;6.15;100.00
70103;BME280;57470;50.034;15.256;2023-04-08T04:17:17;99589.53;;;6.18;99.82
70103;BME280;57470;50.034;15.256;2023-04-08T04:19:43;99590.31;;;6.20;99.36
70103;BME280;57470;50.034;15.256;2023-04-08T04:22:09;99597.25;;;6.22;99.83
70103;BME280;57470;50.034;15.256;2023-04-08T04:24:34;99598.25;;;6.20;99.58
70103;BME280;57470;50.034;15.256;2023-04-08T04:26:59;99603.03;;;6.12;100.00
70103;BME280;57470;50.034;15.256;2023-04-08T04:29:25;99610.97;;;6.12;100.00
70103;BME280;57470;50.034;15.256;2023-04-08T04:31:50;99607.81;;;5.85;100.00
70103;BME280;57470;50.034;15.256;2023-04-08T04:34:15;99610.41;;;6.05;100.00
70103;BME280;57470;50.034;15.256;2023-04-08T04:36:41;99612.69;;;6.13;100.00
70103;BME280;57470;50.034;15.256;2023-04-08T04:39:07;99608.75;;;6.21;99.80
70103;BME280;57470;50.034;15.256;2023-04-08T04:41:33;99618.03;;;6.11;100.00
70103;BME280;57470;50.034;15.256;2023-04-08T04:44:03;99624.13;;;5.94;100.00
70103;BME280;57470;50.034;15.256;2023-04-08T04:46:28;99627.97;;;6.06;100.00
70103;BME280;57470;50.034;15.256;2023-04-08T04:48:53;99634.09;;;6.07;100.00
70103;BME280;57470;50.034;15.256;2023-04-08T04:51:19;99634.25;;;6.03;99.19
70103;BME280;57470;50.034;15.256;2023-04-08T04:53:44;99635.88;;;6.06;99.43
70103;BME280;57470;50.034;15.256;2023-04-08T04:56:10;99638.38;;;6.09;99.66
70103;BME280;57470;50.034;15.256;2023-04-08T04:58:35;99640.50;;;6.20;99.74
70103;BME280;57470;50.034;15.256;2023-04-08T05:01:00;99640.72;;;6.15;100.00
70103;BME280;57470;50.034;15.256;2023-04-08T05:03:26;99644.16;;;6.17;99.96
70103;BME280;57470;50.034;15.256;2023-04-08T05:05:52;99650.13;;;6.21;100.00
70103;BME280;57470;50.034;15.256;2023-04-08T05:08:18;99641.22;;;6.23;100.00
70103;BME280;57470;50.034;15.256;2023-04-08T05:10:44;99647.19;;;6.27;99.40
70103;BME280;57470;50.034;15.256;2023-04-08T05:13:09;99645.19;;;6.32;99.58
70103;BME280;57470;50.034;15.256;2023-04-08T05:15:34;99654.44;;;6.23;99.63
70103;BME280;57470;50.034;15.256;2023-04-08T05:18:00;99658.72;;;6.26;99.97
70103;BME280;57470;50.034;15.256;2023-04-08T05:20:25;99650.47;;;6.32;99.81
70103;BME280;57470;50.034;15.256;2023-04-08T05:22:51;99659.91;;;6.19;99.92
70103;BME280;57470;50.034;15.256;2023-04-08T05:25:16;99652.63;;;6.24;100.00
70103;BME280;57470;50.034;15.256;2023-04-08T05:27:42;99661.78;;;6.17;100.00
70103;BME280;57470;50.034;15.256;2023-04-08T05:30:07;99665.31;;;5.98;100.00
70103;BME280;57470;50.034;15.256;2023-04-08T05:32:34;99665.94;;;6.03;100.00
70103;BME280;57470;50.034;15.256;2023-04-08T05:35:01;99664.34;;;5.99;100.00
70103;BME280;57470;50.034;15.256;2023-04-08T05:37:27;99677.47;;;6.01;100.00
70103;BME280;57470;50.034;15.256;2023-04-08T05:39:52;99678.28;;;6.03;100.00
70103;BME280;57470;50.034;15.256;2023-04-08T05:42:17;99683.91;;;5.95;100.00
70103;BME280;57470;50.034;15.256;2023-04-08T05:44:43;99685.19;;;6.06;100.00
70103;BME280;57470;50.034;15.256;2023-04-08T05:47:09;99681.41;;;5.92;100.00
70103;BME280;57470;50.034;15.256;2023-04-08T05:49:35;99669.50;;;6.02;100.00
70103;BME280;57470;50.034;15.256;2023-04-08T05:52:00;99672.63;;;6.11;100.00
70103;BME280;57470;50.034;15.256;2023-04-08T05:54:26;99672.84;;;6.25;100.00
70103;BME280;57470;50.034;15.256;2023-04-08T05:56:51;99675.91;;;6.34;100.00
70103;BME280;57470;50.034;15.256;2023-04-08T05:59:17;99680.59;;;6.28;100.00
70103;BME280;57470;50.034;15.256;2023-04-08T06:01:42;99685.13;;;6.26;100.00
70103;BME280;57470;50.034;15.256;2023-04-08T06:04:08;99682.66;;;6.40;100.00
70103;BME280;57470;50.034;15.256;2023-04-08T06:06:33;99678.63;;;6.33;100.00
70103;BME280;57470;50.034;15.256;2023-04-08T06:08:58;99684.78;;;6.15;100.00
70103;BME280;57470;50.034;15.256;2023-04-08T06:11:24;99688.25;;;6.34;100.00
70103;BME280;57470;50.034;15.256;2023-04-08T06:13:49;99690.84;;;6.17;100.00
70103;BME280;57470;50.034;15.256;2023-04-08T06:16:15;99691.09;;;6.29;100.00
70103;BME280;57470;50.034;15.256;2023-04-08T06:18:42;99690.72;;;6.37;100.00
70103;BME280;57470;50.034;15.256;2023-04-08T06:21:07;99688.88;;;6.39;100.00
70103;BME280;57470;50.034;15.256;2023-04-08T06:23:33;99689.69;;;6.22;100.00
70103;BME280;57470;50.034;15.256;2023-04-08T06:25:58;99698.81;;;6.34;100.00
70103;BME280;57470;50.034;15.256;2023-04-08T06:28:23;99699.00;;;6.48;100.00
70103;BME280;57470;50.034;15.256;2023-04-08T06:30:49;99689.06;;;6.53;100.00
70103;BME280;57470;50.034;15.256;2023-04-08T06:33:15;99695.81;;;6.42;100.00
70103;BME280;57470;50.034;15.256;2023-04-08T06:35:40;99701.75;;;6.64;100.00
70103;BME280;57470;50.034;15.256;2023-04-08T06:38:05;99698.16;;;6.48;100.00
70103;BME280;57470;50.034;15.256;2023-04-08T06:40:31;99705.38;;;5.88;100.00
70103;BME280;57470;50.034;15.256;2023-04-08T06:42:56;99700.31;;;6.39;100.00
70103;BME280;57470;50.034;15.256;2023-04-08T06:45:22;99704.69;;;6.58;100.00
70103;BME280;57470;50.034;15.256;2023-04-08T06:47:47;99709.22;;;6.37;100.00
70103;BME280;57470;50.034;15.256;2023-04-08T06:50:13;99717.38;;;6.32;100.00
70103;BME280;57470;50.034;15.256;2023-04-08T06:52:38;99727.06;;;6.51;100.00
70103;BME280;57470;50.034;15.256;2023-04-08T06:55:04;99730.13;;;6.60;100.00
70103;BME280;57470;50.034;15.256;2023-04-08T06:57:30;99733.50;;;6.81;100.00
70103;BME280;57470;50.034;15.256;2023-04-08T06:59:55;99736.00;;;6.84;100.00
70103;BME280;57470;50.034;15.256;2023-04-08T07:02:21;99737.72;;;6.85;100.00
70103;BME280;57470;50.034;15.256;2023-04-08T07:04:47;99734.22;;;7.02;100.00
70103;BME280;57470;50.034;15.256;2023-04-08T07:07:12;99742.09;;;7.03;99.11
70103;BME280;57470;50.034;15.256;2023-04-08T07:09:38;99744.16;;;7.15;98.54
70103;BME280;57470;50.034;15.256;2023-04-08T07:12:05;99742.03;;;7.22;98.19
70103;BME280;57470;50.034;15.256;2023-04-08T07:14:31;99747.53;;;7.00;98.75
70103;BME280;57470;50.034;15.256;2023-04-08T07:16:56;99744.59;;;7.06;97.74
70103;BME280;57470;50.034;15.256;2023-04-08T07:19:21;99750.97;;;7.02;98.51
70103;BME280;57470;50.034;15.256;2023-04-08T07:21:48;99754.75;;;6.80;99.53
70103;BME280;57470;50.034;15.256;2023-04-08T07:24:13;99760.31;;;6.73;99.66
70103;BME280;57470;50.034;15.256;2023-04-08T07:26:40;99767.66;;;6.86;100.00
70103;BME280;57470;50.034;15.256;2023-04-08T07:29:05;99761.00;;;6.96;100.00
70103;BME280;57470;50.034;15.256;2023-04-08T07:31:30;99754.22;;;7.07;100.00
70103;BME280;57470;50.034;15.256;2023-04-08T07:33:56;99756.66;;;7.29;98.93
70103;BME280;57470;50.034;15.256;2023-04-08T07:36:21;99767.38;;;7.26;98.59
70103;BME280;57470;50.034;15.256;2023-04-08T07:38:47;99763.41;;;7.18;98.58
70103;BME280;57470;50.034;15.256;2023-04-08T07:41:12;99761.81;;;7.32;99.04
70103;BME280;57470;50.034;15.256;2023-04-08T07:43:38;99769.53;;;7.01;98.73
70103;BME280;57470;50.034;15.256;2023-04-08T07:46:04;99774.56;;;7.24;98.50
70103;BME280;57470;50.034;15.256;2023-04-08T07:48:30;99777.09;;;7.26;99.03
70103;BME280;57470;50.034;15.256;2023-04-08T07:50:56;99780.88;;;7.39;99.31
70103;BME280;57470;50.034;15.256;2023-04-08T07:53:21;99780.47;;;7.29;98.58
70103;BME280;57470;50.034;15.256;2023-04-08T07:55:48;99790.38;;;7.07;99.16
70103;BME280;57470;50.034;15.256;2023-04-08T07:58:13;99785.84;;;7.45;99.12
70103;BME280;57470;50.034;15.256;2023-04-08T08:00:39;99792.53;;;7.52;99.73
70103;BME280;57470;50.034;15.256;2023-04-08T08:03:05;99792.81;;;7.80;99.18
70103;BME280;57470;50.034;15.256;2023-04-08T08:05:30;99796.81;;;7.54;97.76
70103;BME280;57470;50.034;15.256;2023-04-08T08:07:55;99792.75;;;7.65;98.51
70103;BME280;57470;50.034;15.256;2023-04-08T08:10:21;99797.00;;;7.51;98.04
70103;BME280;57470;50.034;15.256;2023-04-08T08:12:46;99798.66;;;7.70;98.05
70103;BME280;57470;50.034;15.256;2023-04-08T08:15:12;99798.75;;;7.85;97.92
70103;BME280;57470;50.034;15.256;2023-04-08T08:17:37;99809.88;;;7.92;99.08
70103;BME280;57470;50.034;15.256;2023-04-08T08:20:03;99808.31;;;7.36;100.00
70103;BME280;57470;50.034;15.256;2023-04-08T08:22:29;99810.97;;;7.19;99.45
70103;BME280;57470;50.034;15.256;2023-04-08T08:24:57;99812.41;;;7.78;97.89
70103;BME280;57470;50.034;15.256;2023-04-08T08:27:23;99817.84;;;7.40;98.17
70103;BME280;57470;50.034;15.256;2023-04-08T08:29:49;99813.88;;;7.49;99.37
70103;BME280;57470;50.034;15.256;2023-04-08T08:32:15;99811.75;;;7.73;99.04
70103;BME280;57470;50.034;15.256;2023-04-08T08:34:41;99818.91;;;7.88;97.22
70103;BME280;57470;50.034;15.256;2023-04-08T08:37:06;99810.91;;;7.55;98.60
70103;BME280;57470;50.034;15.256;2023-04-08T08:39:31;99820.78;;;8.03;98.21
70103;BME280;57470;50.034;15.256;2023-04-08T08:41:57;99820.03;;;8.17;97.18
70103;BME280;57470;50.034;15.256;2023-04-08T08:44:23;99825.19;;;7.34;96.97
70103;BME280;57470;50.034;15.256;2023-04-08T08:46:48;99817.31;;;7.68;98.70
70103;BME280;57470;50.034;15.256;2023-04-08T08:49:14;99828.81;;;7.84;96.58
70103;BME280;57470;50.034;15.256;2023-04-08T08:51:40;99832.66;;;8.12;96.37
70103;BME280;57470;50.034;15.256;2023-04-08T08:54:08;99826.41;;;7.63;98.42
70103;BME280;57470;50.034;15.256;2023-04-08T08:56:33;99836.66;;;7.34;98.12
70103;BME280;57470;50.034;15.256;2023-04-08T08:58:59;99827.31;;;7.62;98.23
70103;BME280;57470;50.034;15.256;2023-04-08T09:01:33;99833.13;;;7.34;98.47
70103;BME280;57470;50.034;15.256;2023-04-08T09:04:13;99831.41;;;7.69;99.27
70103;BME280;57470;50.034;15.256;2023-04-08T09:06:41;99842.72;;;8.05;98.50
70103;BME280;57470;50.034;15.256;2023-04-08T09:09:07;99839.41;;;7.84;99.28
70103;BME280;57470;50.034;15.256;2023-04-08T09:11:40;99840.88;;;7.56;98.51
70103;BME280;57470;50.034;15.256;2023-04-08T09:14:22;99845.72;;;7.65;99.17
70103;BME280;57470;50.034;15.256;2023-04-08T09:16:49;99843.22;;;7.96;97.10
70103;BME280;57470;50.034;15.256;2023-04-08T09:19:15;99849.09;;;8.18;96.00
70103;BME280;57470;50.034;15.256;2023-04-08T09:21:41;99852.81;;;8.14;96.41
70103;BME280;57470;50.034;15.256;2023-04-08T09:24:07;99851.72;;;8.36;97.27
70103;BME280;57470;50.034;15.256;2023-04-08T09:26:33;99862.34;;;8.18;96.14
70103;BME280;57470;50.034;15.256;2023-04-08T09:29:06;99870.25;;;7.51;94.70
70103;BME280;57470;50.034;15.256;2023-04-08T09:31:34;99874.81;;;7.99;95.49
70103;BME280;57470;50.034;15.256;2023-04-08T09:34:12;99864.31;;;7.80;94.41
70103;BME280;57470;50.034;15.256;2023-04-08T09:36:39;99866.31;;;8.10;95.03
70103;BME280;57470;50.034;15.256;2023-04-08T09:39:05;99870.53;;;7.79;97.29
70103;BME280;57470;50.034;15.256;2023-04-08T09:41:34;99871.72;;;7.91;94.51
70103;BME280;57470;50.034;15.256;2023-04-08T09:44:02;99870.75;;;8.26;96.43
70103;BME280;57470;50.034;15.256;2023-04-08T09:46:37;99877.75;;;8.45;94.54
70103;BME280;57470;50.034;15.256;2023-04-08T09:54:47;99879.19;;;8.99;94.10
70103;BME280;57470;50.034;15.256;2023-04-08T09:57:21;99885.78;;;8.76;93.78
70103;BME280;57470;50.034;15.256;2023-04-08T09:59:56;99878.84;;;8.74;90.61
70103;BME280;57470;50.034;15.256;2023-04-08T10:02:29;99884.06;;;8.75;90.65
70103;BME280;57470;50.034;15.256;2023-04-08T10:04:59;99877.94;;;8.07;91.70
70103;BME280;57470;50.034;15.256;2023-04-08T10:07:25;99882.47;;;8.22;95.62
70103;BME280;57470;50.034;15.256;2023-04-08T10:09:50;99882.28;;;8.08;93.83
70103;BME280;57470;50.034;15.256;2023-04-08T10:12:16;99887.81;;;8.21;95.99
70103;BME280;57470;50.034;15.256;2023-04-08T10:17:46;99884.81;;;8.11;96.11
70103;BME280;57470;50.034;15.256;2023-04-08T10:23:20;99893.50;;;7.79;97.09
70103;BME280;57470;50.034;15.256;2023-04-08T10:25:48;99897.91;;;8.32;95.62
70103;BME280;57470;50.034;15.256;2023-04-08T10:30:49;99897.19;;;7.94;90.53
70103;BME280;57470;50.034;15.256;2023-04-08T10:36:07;99907.34;;;8.53;89.56
70103;BME280;57470;50.034;15.256;2023-04-08T10:38:34;99900.59;;;8.30;88.79
70103;BME280;57470;50.034;15.256;2023-04-08T10:41:00;99904.13;;;7.96;90.00
70103;BME280;57470;50.034;15.256;2023-04-08T10:43:25;99912.22;;;8.27;91.84
70103;BME280;57470;50.034;15.256;2023-04-08T10:45:52;99908.38;;;8.83;88.59
70103;BME280;57470;50.034;15.256;2023-04-08T10:48:19;99906.06;;;8.93;89.35
70103;BME280;57470;50.034;15.256;2023-04-08T10:50:54;99904.72;;;9.17;87.60
70103;BME280;57470;50.034;15.256;2023-04-08T10:53:25;99907.78;;;8.94;88.50
70103;BME280;57470;50.034;15.256;2023-04-08T10:55:51;99905.19;;;9.55;84.77
70103;BME280;57470;50.034;15.256;2023-04-08T10:58:16;99899.06;;;9.39;85.12
70103;BME280;57470;50.034;15.256;2023-04-08T11:00:42;99904.19;;;9.88;83.96
70103;BME280;57470;50.034;15.256;2023-04-08T11:03:09;99904.19;;;9.11;86.47
70103;BME280;57470;50.034;15.256;2023-04-08T11:05:35;99905.31;;;9.38;86.63
70103;BME280;57470;50.034;15.256;2023-04-08T11:08:01;99900.00;;;9.38;85.61
70103;BME280;57470;50.034;15.256;2023-04-08T11:10:27;99909.47;;;8.79;84.25
70103;BME280;57470;50.034;15.256;2023-04-08T11:12:56;99907.09;;;8.90;84.53
70103;BME280;57470;50.034;15.256;2023-04-08T11:15:28;99903.75;;;8.87;84.50
70103;BME280;57470;50.034;15.256;2023-04-08T11:17:54;99914.19;;;8.74;86.02
70103;BME280;57470;50.034;15.256;2023-04-08T11:20:20;99913.94;;;8.46;88.28
70103;BME280;57470;50.034;15.256;2023-04-08T11:22:46;99915.66;;;8.47;87.73
70103;BME280;57470;50.034;15.256;2023-04-08T11:25:12;99916.03;;;8.22;88.05
70103;BME280;57470;50.034;15.256;2023-04-08T11:27:38;99917.34;;;8.31;88.83
70103;BME280;57470;50.034;15.256;2023-04-08T11:30:05;99918.50;;;8.25;87.82
70103;BME280;57470;50.034;15.256;2023-04-08T11:32:31;99926.34;;;8.11;90.70
70103;BME280;57470;50.034;15.256;2023-04-08T11:35:01;99915.41;;;8.17;89.27
70103;BME280;57470;50.034;15.256;2023-04-08T11:37:40;99920.25;;;8.09;90.59
70103;BME280;57470;50.034;15.256;2023-04-08T11:40:10;99927.00;;;8.14;90.31
70103;BME280;57470;50.034;15.256;2023-04-08T11:42:36;99924.28;;;7.81;89.50
70103;BME280;57470;50.034;15.256;2023-04-08T11:45:10;99913.06;;;8.28;89.97
70103;BME280;57470;50.034;15.256;2023-04-08T11:47:36;99923.75;;;7.92;90.00
70103;BME280;57470;50.034;15.256;2023-04-08T11:50:02;99925.34;;;7.96;89.39
70103;BME280;57470;50.034;15.256;2023-04-08T11:53:00;99931.56;;;7.95;90.15
70103;BME280;57470;50.034;15.256;2023-04-08T11:55:26;99928.97;;;7.76;90.18
70103;BME280;57470;50.034;15.256;2023-04-08T11:57:53;99928.19;;;7.74;90.48
70103;BME280;57470;50.034;15.256;2023-04-08T12:00:19;99940.25;;;7.80;89.04
70103;BME280;57470;50.034;15.256;2023-04-08T12:02:45;99928.91;;;8.12;89.79
70103;BME280;57470;50.034;15.256;2023-04-08T12:05:14;99932.03;;;7.86;87.93
70103;BME280;57470;50.034;15.256;2023-04-08T12:07:40;99931.69;;;7.92;88.87
70103;BME280;57470;50.034;15.256;2023-04-08T12:10:07;99934.28;;;7.94;88.71
70103;BME280;57470;50.034;15.256;2023-04-08T12:12:33;99933.25;;;8.31;88.90
70103;BME280;57470;50.034;15.256;2023-04-08T12:14:58;99932.84;;;8.55;87.70
70103;BME280;57470;50.034;15.256;2023-04-08T12:17:24;99936.81;;;8.64;87.07
70103;BME280;57470;50.034;15.256;2023-04-08T12:19:49;99944.34;;;8.72;86.01
70103;BME280;57470;50.034;15.256;2023-04-08T12:22:15;99937.25;;;8.72;85.56
70103;BME280;57470;50.034;15.256;2023-04-08T12:24:41;99941.81;;;8.53;85.65
70103;BME280;57470;50.034;15.256;2023-04-08T12:27:06;99932.75;;;8.74;85.63
70103;BME280;57470;50.034;15.256;2023-04-08T12:29:32;99933.91;;;8.69;84.89
70103;BME280;57470;50.034;15.256;2023-04-08T12:31:58;99932.22;;;8.68;84.52
70103;BME280;57470;50.034;15.256;2023-04-08T12:34:23;99934.13;;;8.81;84.89
70103;BME280;57470;50.034;15.256;2023-04-08T12:36:49;99929.09;;;8.92;84.05
70103;BME280;57470;50.034;15.256;2023-04-08T12:39:14;99935.50;;;9.04;83.56
70103;BME280;57470;50.034;15.256;2023-04-08T12:41:40;99937.75;;;9.27;83.94
70103;BME280;57470;50.034;15.256;2023-04-08T12:44:05;99931.94;;;9.21;83.17
70103;BME280;57470;50.034;15.256;2023-04-08T12:46:32;99932.53;;;9.26;82.42
70103;BME280;57470;50.034;15.256;2023-04-08T12:48:58;99938.41;;;8.99;81.81
70103;BME280;57470;50.034;15.256;2023-04-08T12:51:24;99941.78;;;9.19;83.13
70103;BME280;57470;50.034;15.256;2023-04-08T12:53:53;99936.72;;;9.14;83.30
70103;BME280;57470;50.034;15.256;2023-04-08T12:56:19;99934.84;;;9.32;82.75
70103;BME280;57470;50.034;15.256;2023-04-08T12:58:45;99928.50;;;9.03;80.42
70103;BME280;57470;50.034;15.256;2023-04-08T13:01:11;99924.13;;;9.33;81.77
70103;BME280;57470;50.034;15.256;2023-04-08T13:03:36;99928.16;;;9.56;80.93
70103;BME280;57470;50.034;15.256;2023-04-08T13:06:02;99923.00;;;9.53;80.75
70103;BME280;57470;50.034;15.256;2023-04-08T13:08:27;99932.94;;;9.50;80.58
70103;BME280;57470;50.034;15.256;2023-04-08T13:10:53;99937.16;;;9.38;80.40
70103;BME280;57470;50.034;15.256;2023-04-08T13:13:21;99936.97;;;9.25;80.99